Time;durP1;ratioP1;P1;durP2;ratioP2;P2;SDS_P1;SDS_P2;PMS_P1;PMS_P2;Temp;Humidity;BMP_temperature;BMP_pressure;BME280_temperature;BME280_humidity;BME280_pressure;Samples;Min_cycle;Max_cycle;Signal;HPM_P1;HPM_P2
2021/06/07 00:01:07;;;;;;;12.75;7.40;;;;;;;;;;5052533;28;20033;-74
2021/06/07 00:03:33;;;;;;;10.93;8.70;;;;;;;;;;5045906;28;20037;-74
2021/06/07 00:05:59;;;;;;;9.82;7.90;;;;;;;;;;5038962;28;20395;-74
2021/06/07 00:08:25;;;;;;;9.43;7.63;;;;;;;;;;5038033;28;20120;-74
2021/06/07 00:10:50;;;;;;;9.65;8.40;;;;;;;;;;5035413;28;20726;-74
2021/06/07 00:13:16;;;;;;;11.10;8.25;;;;;;;;;;5038156;28;20033;-74
2021/06/07 00:15:42;;;;;;;13.00;8.10;;;;;;;;;;5055747;28;20037;-74
2021/06/07 00:18:07;;;;;;;10.55;8.93;;;;;;;;;;5055421;28;20403;-74
2021/06/07 00:20:40;;;;;;;10.50;7.82;;;;;;;;;;5055736;28;20406;-74
2021/06/07 00:23:08;;;;;;;13.43;7.68;;;;;;;;;;5055447;28;20395;-74
2021/06/07 00:25:34;;;;;;;11.57;8.70;;;;;;;;;;5055448;28;20411;-74
2021/06/07 00:27:59;;;;;;;12.27;8.00;;;;;;;;;;5055207;28;20045;-75
2021/06/07 00:30:25;;;;;;;16.10;9.13;;;;;;;;;;5055459;28;20060;-75
2021/06/07 00:32:51;;;;;;;14.00;8.32;;;;;;;;;;5045378;28;20056;-75
2021/06/07 00:35:21;;;;;;;10.75;8.38;;;;;;;;;;5040422;28;20937;-75
2021/06/07 00:37:47;;;;;;;11.05;8.02;;;;;;;;;;5043495;28;20040;-75
2021/06/07 00:40:12;;;;;;;9.23;7.25;;;;;;;;;;5045721;28;20116;-75
2021/06/07 00:42:38;;;;;;;12.70;8.35;;;;;;;;;;5042808;28;20041;-75
2021/06/07 00:45:07;;;;;;;11.60;7.60;;;;;;;;;;5039820;28;20418;-75
2021/06/07 00:47:33;;;;;;;10.70;8.40;;;;;;;;;;5046122;28;20060;-76
2021/06/07 00:49:58;;;;;;;15.70;9.10;;;;;;;;;;5037254;28;20064;-76
2021/06/07 00:52:25;;;;;;;16.63;9.07;;;;;;;;;;5035317;28;20556;-75
2021/06/07 00:54:50;;;;;;;12.32;9.25;;;;;;;;;;5034751;28;20468;-75
2021/06/07 00:57:15;;;;;;;11.98;8.65;;;;;;;;;;5035124;28;20042;-75
2021/06/07 00:59:41;;;;;;;16.10;9.80;;;;;;;;;;5035242;28;20033;-75
2021/06/07 01:02:06;;;;;;;11.43;9.07;;;;;;;;;;5038079;28;20042;-75
2021/06/07 01:04:32;;;;;;;14.25;9.93;;;;;;;;;;5047666;28;20127;-75
2021/06/07 01:06:57;;;;;;;13.20;9.80;;;;;;;;;;5043680;28;20044;-76
2021/06/07 01:09:23;;;;;;;13.48;9.82;;;;;;;;;;5041525;28;20087;-75
2021/06/07 01:11:48;;;;;;;14.52;10.55;;;;;;;;;;5053766;28;20032;-75
2021/06/07 01:14:13;;;;;;;12.10;8.80;;;;;;;;;;5048776;28;20036;-75
2021/06/07 01:16:39;;;;;;;12.15;9.27;;;;;;;;;;5043544;28;20056;-76
2021/06/07 01:19:07;;;;;;;14.23;10.02;;;;;;;;;;5034579;28;20256;-76
2021/06/07 01:21:32;;;;;;;13.75;9.43;;;;;;;;;;5034692;28;20517;-75
2021/06/07 01:23:58;;;;;;;13.13;9.32;;;;;;;;;;5049475;28;20025;-75
2021/06/07 01:26:25;;;;;;;12.77;9.85;;;;;;;;;;5052940;28;20041;-75
2021/06/07 01:28:51;;;;;;;15.23;11.25;;;;;;;;;;5054275;28;20489;-75
2021/06/07 01:31:18;;;;;;;13.77;9.50;;;;;;;;;;5054314;28;20402;-76
2021/06/07 01:33:47;;;;;;;15.40;11.95;;;;;;;;;;5043331;28;20036;-76
2021/06/07 01:36:13;;;;;;;19.35;12.13;;;;;;;;;;5043724;28;20041;-75
2021/06/07 01:38:38;;;;;;;15.35;12.63;;;;;;;;;;5039032;28;20032;-76
2021/06/07 01:41:07;;;;;;;24.50;17.88;;;;;;;;;;5042867;28;20367;-76
2021/06/07 01:43:35;;;;;;;31.60;17.90;;;;;;;;;;5033880;28;20041;-75
2021/06/07 01:46:01;;;;;;;25.45;19.00;;;;;;;;;;5036397;28;20044;-74
2021/06/07 01:48:27;;;;;;;25.75;19.10;;;;;;;;;;5041162;28;20525;-74
2021/06/07 01:50:55;;;;;;;22.77;16.77;;;;;;;;;;5043024;28;20041;-75
2021/06/07 01:53:23;;;;;;;27.95;19.15;;;;;;;;;;5034021;28;20037;-74
2021/06/07 01:55:52;;;;;;;21.40;16.50;;;;;;;;;;5034225;28;20037;-75
2021/06/07 01:58:19;;;;;;;19.50;15.32;;;;;;;;;;5033567;28;20168;-74
2021/06/07 02:00:47;;;;;;;22.08;16.15;;;;;;;;;;5032756;28;20049;-74
2021/06/07 02:03:16;;;;;;;24.05;18.10;;;;;;;;;;5035449;28;20029;-75
2021/06/07 02:05:43;;;;;;;25.75;16.08;;;;;;;;;;5045073;28;20029;-74
2021/06/07 02:08:12;;;;;;;20.33;16.35;;;;;;;;;;5052923;28;20041;-75
2021/06/07 02:10:40;;;;;;;26.30;17.45;;;;;;;;;;5053872;28;20037;-75
2021/06/07 02:13:08;;;;;;;20.83;16.52;;;;;;;;;;5048376;28;20041;-74
2021/06/07 02:15:33;;;;;;;26.63;17.35;;;;;;;;;;5041345;28;20052;-75
2021/06/07 02:18:04;;;;;;;23.15;17.45;;;;;;;;;;5033802;28;20041;-75
2021/06/07 02:20:30;;;;;;;24.20;18.17;;;;;;;;;;5033552;28;20040;-76
2021/06/07 02:22:56;;;;;;;23.55;18.65;;;;;;;;;;5033444;28;20454;-77
2021/06/07 02:25:22;;;;;;;24.75;19.52;;;;;;;;;;5033573;28;20129;-77
2021/06/07 02:27:48;;;;;;;23.85;18.25;;;;;;;;;;5033214;28;20030;-76
2021/06/07 02:30:20;;;;;;;26.67;18.90;;;;;;;;;;5032890;28;20037;-75
2021/06/07 02:32:46;;;;;;;21.05;17.25;;;;;;;;;;5032490;28;20041;-75
2021/06/07 02:35:15;;;;;;;25.10;18.85;;;;;;;;;;5042382;28;20033;-75
2021/06/07 02:37:41;;;;;;;24.95;19.40;;;;;;;;;;5042088;28;20083;-75
2021/06/07 02:40:09;;;;;;;28.40;18.70;;;;;;;;;;5033159;28;20029;-75
2021/06/07 02:42:37;;;;;;;28.27;19.30;;;;;;;;;;5048600;28;20037;-74
2021/06/07 02:45:05;;;;;;;24.10;17.98;;;;;;;;;;5053282;28;20044;-75
2021/06/07 02:47:31;;;;;;;23.88;19.50;;;;;;;;;;5053237;28;20379;-75
2021/06/07 02:49:56;;;;;;;25.13;17.70;;;;;;;;;;5053094;28;20033;-75
2021/06/07 02:52:22;;;;;;;26.08;20.13;;;;;;;;;;5053091;28;20037;-75
2021/06/07 02:54:47;;;;;;;24.52;18.65;;;;;;;;;;5053099;28;20530;-75
2021/06/07 02:57:13;;;;;;;27.40;19.75;;;;;;;;;;5052188;28;20099;-75
2021/06/07 02:59:39;;;;;;;28.35;20.00;;;;;;;;;;5043709;28;20079;-77
2021/06/07 03:02:04;;;;;;;23.20;18.40;;;;;;;;;;5036663;28;20041;-76
2021/06/07 03:04:30;;;;;;;30.10;19.85;;;;;;;;;;5045781;28;20025;-77
2021/06/07 03:06:55;;;;;;;26.70;18.98;;;;;;;;;;5041082;28;20044;-76
2021/06/07 03:09:21;;;;;;;30.20;20.55;;;;;;;;;;5053865;28;20098;-77
2021/06/07 03:11:46;;;;;;;32.55;21.38;;;;;;;;;;5050985;28;20494;-76
2021/06/07 03:14:12;;;;;;;23.52;18.58;;;;;;;;;;5043179;28;20029;-76
2021/06/07 03:16:37;;;;;;;27.77;19.83;;;;;;;;;;5034606;28;20053;-76
2021/06/07 03:19:02;;;;;;;25.88;19.52;;;;;;;;;;5033501;28;20044;-76
2021/06/07 03:21:28;;;;;;;28.20;19.33;;;;;;;;;;5036116;28;20033;-76
2021/06/07 03:23:53;;;;;;;24.20;19.27;;;;;;;;;;5042419;28;20057;-75
2021/06/07 03:26:19;;;;;;;26.58;17.92;;;;;;;;;;5027923;28;20036;-76
2021/06/07 03:28:44;;;;;;;23.60;18.85;;;;;;;;;;5054706;28;20067;-76
2021/06/07 03:31:10;;;;;;;22.15;18.50;;;;;;;;;;5053676;28;20047;-76
2021/06/07 03:33:36;;;;;;;27.02;18.15;;;;;;;;;;5051142;28;20040;-76
2021/06/07 03:36:03;;;;;;;22.83;18.20;;;;;;;;;;5043261;28;20029;-76
2021/06/07 03:38:31;;;;;;;29.63;20.30;;;;;;;;;;5053621;28;20045;-76
2021/06/07 03:40:57;;;;;;;21.48;18.25;;;;;;;;;;5054206;28;20028;-76
2021/06/07 03:43:30;;;;;;;24.30;17.98;;;;;;;;;;5054568;28;20029;-76
2021/06/07 03:45:57;;;;;;;25.10;19.52;;;;;;;;;;5050240;28;20041;-76
2021/06/07 03:48:22;;;;;;;27.60;20.08;;;;;;;;;;5047384;28;20037;-76
2021/06/07 03:50:48;;;;;;;22.52;18.00;;;;;;;;;;5036779;28;20045;-78
2021/06/07 03:53:14;;;;;;;22.52;17.60;;;;;;;;;;5036241;28;20025;-77
2021/06/07 03:55:40;;;;;;;23.75;19.30;;;;;;;;;;5035881;28;20402;-75
2021/06/07 03:58:06;;;;;;;24.00;18.45;;;;;;;;;;5036223;28;20499;-74
2021/06/07 04:00:35;;;;;;;22.27;17.20;;;;;;;;;;5035157;28;20112;-74
2021/06/07 04:03:02;;;;;;;21.13;17.08;;;;;;;;;;5036277;28;20030;-74
2021/06/07 04:05:28;;;;;;;23.88;19.42;;;;;;;;;;5036085;28;20459;-76
2021/06/07 04:07:55;;;;;;;24.02;18.02;;;;;;;;;;5047059;28;20039;-76
2021/06/07 04:10:22;;;;;;;24.25;18.20;;;;;;;;;;5054802;28;20132;-77
2021/06/07 04:12:49;;;;;;;23.85;18.23;;;;;;;;;;5055917;28;20459;-75
2021/06/07 04:15:20;;;;;;;21.95;17.98;;;;;;;;;;5055923;28;20041;-76
2021/06/07 04:17:46;;;;;;;25.23;17.65;;;;;;;;;;5055815;28;20080;-76
2021/06/07 04:20:15;;;;;;;20.40;16.92;;;;;;;;;;5054615;28;20402;-75
2021/06/07 04:22:42;;;;;;;23.70;18.63;;;;;;;;;;5055772;28;20063;-76
2021/06/07 04:25:09;;;;;;;22.23;18.40;;;;;;;;;;5055546;28;20029;-76
2021/06/07 04:27:35;;;;;;;20.70;17.88;;;;;;;;;;5040162;28;20041;-75
2021/06/07 04:30:05;;;;;;;28.75;19.13;;;;;;;;;;5045121;28;20047;-74
2021/06/07 04:32:32;;;;;;;22.73;18.17;;;;;;;;;;5055562;28;20037;-74
2021/06/07 04:35:00;;;;;;;21.23;17.00;;;;;;;;;;5055105;28;20090;-73
2021/06/07 04:37:25;;;;;;;20.70;17.40;;;;;;;;;;5055301;28;20044;-75
2021/06/07 04:39:51;;;;;;;25.55;18.38;;;;;;;;;;5056159;28;21124;-75
2021/06/07 04:42:16;;;;;;;22.70;16.77;;;;;;;;;;5052772;28;20513;-75
2021/06/07 04:44:41;;;;;;;22.88;18.65;;;;;;;;;;5055267;28;20036;-75
2021/06/07 04:47:07;;;;;;;20.23;16.92;;;;;;;;;;5053757;28;20049;-75
2021/06/07 04:49:32;;;;;;;20.48;16.67;;;;;;;;;;5055091;28;20040;-75
2021/06/07 04:51:58;;;;;;;18.35;15.35;;;;;;;;;;5055282;28;20120;-75
2021/06/07 04:54:23;;;;;;;24.08;18.02;;;;;;;;;;5054761;28;20163;-75
2021/06/07 04:56:48;;;;;;;21.10;15.80;;;;;;;;;;5054411;28;20186;-75
2021/06/07 04:59:14;;;;;;;19.95;15.93;;;;;;;;;;5055156;28;20033;-75
2021/06/07 05:01:39;;;;;;;21.80;16.17;;;;;;;;;;5054745;28;20037;-75
2021/06/07 05:04:05;;;;;;;20.75;16.65;;;;;;;;;;5053712;28;20044;-75
2021/06/07 05:06:30;;;;;;;18.58;16.35;;;;;;;;;;5054953;28;20486;-75
2021/06/07 05:08:55;;;;;;;19.40;14.63;;;;;;;;;;5054138;28;20036;-75
2021/06/07 05:11:21;;;;;;;22.38;17.70;;;;;;;;;;5054796;28;20128;-75
2021/06/07 05:13:46;;;;;;;26.20;18.30;;;;;;;;;;5053665;28;20056;-75
2021/06/07 05:16:12;;;;;;;20.00;16.05;;;;;;;;;;5054872;28;20075;-75
2021/06/07 05:18:37;;;;;;;22.08;15.68;;;;;;;;;;5054442;28;20037;-75
2021/06/07 05:21:04;;;;;;;17.33;14.85;;;;;;;;;;5054691;28;20094;-75
2021/06/07 05:23:30;;;;;;;20.50;15.32;;;;;;;;;;5054512;28;20037;-75
2021/06/07 05:25:57;;;;;;;20.42;15.52;;;;;;;;;;5054632;28;20037;-76
2021/06/07 05:28:23;;;;;;;25.27;15.70;;;;;;;;;;5053312;28;20032;-75
2021/06/07 05:30:50;;;;;;;18.70;14.40;;;;;;;;;;5054230;28;20029;-75
2021/06/07 05:33:17;;;;;;;18.65;14.75;;;;;;;;;;5054158;28;20426;-75
2021/06/07 05:35:45;;;;;;;19.08;15.82;;;;;;;;;;5054451;28;20048;-75
2021/06/07 05:38:12;;;;;;;23.45;15.32;;;;;;;;;;5054130;28;20036;-75
2021/06/07 05:40:38;;;;;;;17.85;14.32;;;;;;;;;;5053271;28;20033;-75
2021/06/07 05:43:05;;;;;;;22.95;14.65;;;;;;;;;;5054183;28;20048;-76
2021/06/07 05:45:31;;;;;;;22.63;15.90;;;;;;;;;;5053896;28;20037;-75
2021/06/07 05:47:58;;;;;;;28.55;16.88;;;;;;;;;;5054199;28;20036;-75
2021/06/07 05:50:26;;;;;;;22.95;16.52;;;;;;;;;;5053545;28;20044;-75
2021/06/07 05:52:52;;;;;;;26.33;19.05;;;;;;;;;;5054046;28;20094;-75
2021/06/07 05:55:24;;;;;;;21.95;16.67;;;;;;;;;;5052400;28;20037;-75
2021/06/07 05:57:53;;;;;;;23.98;16.25;;;;;;;;;;5053900;28;20094;-75
2021/06/07 06:00:22;;;;;;;22.27;17.20;;;;;;;;;;5053544;28;20040;-75
2021/06/07 06:02:47;;;;;;;22.23;16.30;;;;;;;;;;5053305;28;20044;-75
2021/06/07 06:05:14;;;;;;;23.70;18.42;;;;;;;;;;5052587;28;20037;-75
2021/06/07 06:07:40;;;;;;;31.27;20.02;;;;;;;;;;5051782;28;20483;-75
2021/06/07 06:10:06;;;;;;;20.05;16.40;;;;;;;;;;5053909;28;20033;-75
2021/06/07 06:12:32;;;;;;;22.00;16.42;;;;;;;;;;5052592;28;20036;-75
2021/06/07 06:14:57;;;;;;;21.60;15.70;;;;;;;;;;5052079;28;20029;-75
2021/06/07 06:17:23;;;;;;;23.02;16.45;;;;;;;;;;5052266;28;20506;-75
2021/06/07 06:19:48;;;;;;;19.67;14.82;;;;;;;;;;5053601;28;20036;-76
2021/06/07 06:22:14;;;;;;;18.55;14.60;;;;;;;;;;5052504;28;20367;-75
2021/06/07 06:24:40;;;;;;;14.40;12.10;;;;;;;;;;5053520;28;20068;-76
2021/06/07 06:27:06;;;;;;;16.13;12.38;;;;;;;;;;5053304;28;20048;-75
2021/06/07 06:29:31;;;;;;;14.73;12.05;;;;;;;;;;5053229;28;20238;-75
2021/06/07 06:31:57;;;;;;;13.95;12.50;;;;;;;;;;5053483;28;20060;-75
2021/06/07 06:34:22;;;;;;;17.17;12.40;;;;;;;;;;5053190;28;20487;-76
2021/06/07 06:36:48;;;;;;;22.02;12.25;;;;;;;;;;5050934;28;20045;-76
2021/06/07 06:39:13;;;;;;;17.27;10.68;;;;;;;;;;5053300;28;20033;-76
2021/06/07 06:41:39;;;;;;;18.48;11.75;;;;;;;;;;5050903;28;20036;-75
2021/06/07 06:44:05;;;;;;;14.68;9.98;;;;;;;;;;5052687;28;20076;-77
2021/06/07 06:46:31;;;;;;;12.88;10.50;;;;;;;;;;5056547;28;20087;-77
2021/06/07 06:48:56;;;;;;;12.23;9.05;;;;;;;;;;5053241;28;20398;-77
2021/06/07 06:51:22;;;;;;;9.07;7.97;;;;;;;;;;5052265;28;20462;-77
2021/06/07 06:53:47;;;;;;;11.43;9.00;;;;;;;;;;5053999;28;20043;-77
2021/06/07 06:56:13;;;;;;;14.57;9.77;;;;;;;;;;5053907;28;20110;-77
2021/06/07 06:58:38;;;;;;;10.13;8.57;;;;;;;;;;5054597;28;20041;-76
2021/06/07 07:01:04;;;;;;;13.05;8.93;;;;;;;;;;5055217;28;20037;-76
2021/06/07 07:03:29;;;;;;;10.60;8.82;;;;;;;;;;5056172;28;20037;-76
2021/06/07 07:05:55;;;;;;;11.23;8.25;;;;;;;;;;5058023;28;20127;-77
2021/06/07 07:08:21;;;;;;;12.85;7.28;;;;;;;;;;5055789;28;20021;-77
2021/06/07 07:10:48;;;;;;;16.17;9.50;;;;;;;;;;5056296;28;20040;-76
2021/06/07 07:13:14;;;;;;;10.15;8.02;;;;;;;;;;5052739;28;20033;-75
2021/06/07 07:15:40;;;;;;;11.57;8.25;;;;;;;;;;5034920;28;20467;-75
2021/06/07 07:18:07;;;;;;;13.73;8.48;;;;;;;;;;5053314;28;20044;-75
2021/06/07 07:20:34;;;;;;;16.63;9.50;;;;;;;;;;5057115;28;20071;-75
2021/06/07 07:22:59;;;;;;;9.80;7.25;;;;;;;;;;5056371;28;20032;-75
2021/06/07 07:25:25;;;;;;;11.48;8.38;;;;;;;;;;5057116;28;20479;-75
2021/06/07 07:27:50;;;;;;;11.20;7.88;;;;;;;;;;5055637;28;20415;-75
2021/06/07 07:30:19;;;;;;;11.27;8.57;;;;;;;;;;5038793;28;20467;-75
2021/06/07 07:32:47;;;;;;;16.58;8.35;;;;;;;;;;5056942;28;20037;-75
2021/06/07 07:35:14;;;;;;;12.30;8.02;;;;;;;;;;5055923;28;20037;-75
2021/06/07 07:37:42;;;;;;;13.45;7.18;;;;;;;;;;5056795;28;20029;-75
2021/06/07 07:40:10;;;;;;;9.73;7.63;;;;;;;;;;5056525;28;20028;-75
2021/06/07 07:42:37;;;;;;;10.13;6.97;;;;;;;;;;5056348;28;20060;-75
2021/06/07 07:45:05;;;;;;;13.57;7.22;;;;;;;;;;5056234;28;20118;-75
2021/06/07 07:47:31;;;;;;;13.52;7.43;;;;;;;;;;5055557;28;20069;-75
2021/06/07 07:49:57;;;;;;;16.70;8.93;;;;;;;;;;5056752;28;20057;-75
2021/06/07 07:52:23;;;;;;;10.18;8.00;;;;;;;;;;5056439;28;20540;-75
2021/06/07 07:54:53;;;;;;;12.07;8.63;;;;;;;;;;5056179;28;20079;-75
2021/06/07 07:57:19;;;;;;;12.30;9.32;;;;;;;;;;5056302;28;20119;-75
2021/06/07 07:59:45;;;;;;;11.32;6.70;;;;;;;;;;5056243;28;20112;-75
2021/06/07 08:02:11;;;;;;;14.70;8.73;;;;;;;;;;5054331;28;20068;-75
2021/06/07 08:04:37;;;;;;;13.07;7.90;;;;;;;;;;5056277;28;20057;-75
2021/06/07 08:07:03;;;;;;;12.25;8.07;;;;;;;;;;5055155;28;20115;-75
2021/06/07 08:09:31;;;;;;;15.48;7.88;;;;;;;;;;5055916;28;20067;-75
2021/06/07 08:11:57;;;;;;;34.97;8.95;;;;;;;;;;5056584;28;20037;-75
2021/06/07 08:14:23;;;;;;;11.68;7.05;;;;;;;;;;5056684;28;20083;-75
2021/06/07 08:16:48;;;;;;;9.82;7.30;;;;;;;;;;5056401;28;20037;-75
2021/06/07 08:19:14;;;;;;;13.43;8.07;;;;;;;;;;5056603;28;20107;-75
2021/06/07 08:21:39;;;;;;;14.23;7.70;;;;;;;;;;5056226;28;20021;-75
2021/06/07 08:24:05;;;;;;;11.43;7.63;;;;;;;;;;5056282;28;20047;-75
2021/06/07 08:26:31;;;;;;;11.93;7.10;;;;;;;;;;5056285;28;20466;-75
2021/06/07 08:28:56;;;;;;;9.40;6.85;;;;;;;;;;5056352;28;20028;-75
2021/06/07 08:31:22;;;;;;;18.30;10.82;;;;;;;;;;5055375;28;20494;-75
2021/06/07 08:33:48;;;;;;;11.52;7.25;;;;;;;;;;5056401;28;20441;-75
2021/06/07 08:36:13;;;;;;;12.35;7.70;;;;;;;;;;5055867;28;20039;-75
2021/06/07 08:38:41;;;;;;;17.17;8.50;;;;;;;;;;5055694;28;20481;-75
2021/06/07 08:41:07;;;;;;;8.52;6.10;;;;;;;;;;5053255;28;20478;-75
2021/06/07 08:43:33;;;;;;;14.63;8.57;;;;;;;;;;5054372;28;20497;-75
2021/06/07 08:45:58;;;;;;;10.70;5.68;;;;;;;;;;5056084;28;20033;-75
2021/06/07 08:48:23;;;;;;;12.38;7.38;;;;;;;;;;5056181;28;20371;-75
2021/06/07 08:50:49;;;;;;;15.65;7.88;;;;;;;;;;5054254;28;20467;-75
2021/06/07 08:53:15;;;;;;;12.93;7.25;;;;;;;;;;5053875;28;20041;-75
2021/06/07 08:55:40;;;;;;;11.48;7.03;;;;;;;;;;5055712;28;20068;-75
2021/06/07 08:58:06;;;;;;;10.88;6.47;;;;;;;;;;5055437;28;20041;-75
2021/06/07 09:00:38;;;;;;;12.77;6.10;;;;;;;;;;5054833;28;20087;-75
2021/06/07 09:03:10;;;;;;;8.68;5.55;;;;;;;;;;5054099;28;20067;-75
2021/06/07 09:05:39;;;;;;;11.73;6.53;;;;;;;;;;5055460;28;20114;-75
2021/06/07 09:08:10;;;;;;;11.02;7.85;;;;;;;;;;5053106;28;20033;-75
2021/06/07 09:10:43;;;;;;;11.80;7.70;;;;;;;;;;5055048;28;20040;-75
2021/06/07 09:13:10;;;;;;;9.45;6.75;;;;;;;;;;5055043;28;20043;-75
2021/06/07 09:16:05;;;;;;;10.85;6.45;;;;;;;;;;5054975;28;20068;-76
2021/06/07 09:18:40;;;;;;;17.47;6.93;;;;;;;;;;5049811;28;20056;-75
2021/06/07 09:21:22;;;;;;;11.57;7.38;;;;;;;;;;5054929;28;20090;-76
2021/06/07 09:24:02;;;;;;;12.02;7.20;;;;;;;;;;5055128;28;20090;-75
2021/06/07 09:26:34;;;;;;;12.18;6.93;;;;;;;;;;5054523;28;20131;-76
2021/06/07 09:29:03;;;;;;;14.07;6.55;;;;;;;;;;5054704;28;20037;-76
2021/06/07 09:31:32;;;;;;;13.05;7.25;;;;;;;;;;5054508;28;20041;-77
2021/06/07 09:34:01;;;;;;;11.77;6.38;;;;;;;;;;5055014;28;20035;-76
2021/06/07 09:36:32;;;;;;;15.52;7.40;;;;;;;;;;5055423;28;20098;-76
2021/06/07 09:39:26;;;;;;;11.55;6.28;;;;;;;;;;5054048;28;20036;-77
2021/06/07 09:41:53;;;;;;;10.70;6.95;;;;;;;;;;5054132;28;20391;-77
2021/06/07 09:44:31;;;;;;;8.10;5.35;;;;;;;;;;5052530;28;20033;-77
2021/06/07 09:47:07;;;;;;;10.15;5.53;;;;;;;;;;5054269;28;20426;-77
2021/06/07 09:49:44;;;;;;;8.13;5.43;;;;;;;;;;5052886;28;20041;-77
2021/06/07 09:52:15;;;;;;;11.60;6.45;;;;;;;;;;5053678;28;20033;-77
2021/06/07 09:54:41;;;;;;;11.32;4.97;;;;;;;;;;5052859;28;20577;-77
2021/06/07 09:57:07;;;;;;;7.68;5.63;;;;;;;;;;5054752;28;20087;-76
2021/06/07 09:59:36;;;;;;;10.18;4.80;;;;;;;;;;5055160;28;20036;-76
2021/06/07 10:02:14;;;;;;;8.13;4.85;;;;;;;;;;5054388;28;20128;-77
2021/06/07 10:04:48;;;;;;;7.30;4.60;;;;;;;;;;5054212;28;20084;-77
2021/06/07 10:07:13;;;;;;;7.75;4.63;;;;;;;;;;5053295;28;20040;-76
2021/06/07 10:09:38;;;;;;;7.53;4.38;;;;;;;;;;5053452;28;20112;-77
2021/06/07 10:12:23;;;;;;;10.82;5.85;;;;;;;;;;5053780;28;20033;-77
2021/06/07 10:14:48;;;;;;;11.90;5.27;;;;;;;;;;5052452;28;20048;-74
2021/06/07 10:17:14;;;;;;;7.78;5.32;;;;;;;;;;5052842;28;20045;-74
2021/06/07 10:22:11;;;;;;;9.80;5.78;;;;;;;;;;5053355;28;20059;-75
2021/06/07 10:24:36;;;;;;;6.85;5.03;;;;;;;;;;5053276;28;20147;-75
2021/06/07 10:27:02;;;;;;;7.35;4.53;;;;;;;;;;5053245;28;20116;-74
2021/06/07 10:29:42;;;;;;;6.93;4.20;;;;;;;;;;5053428;28;20087;-75
2021/06/07 10:32:13;;;;;;;9.13;4.28;;;;;;;;;;5053634;28;20131;-75
2021/06/07 10:35:00;;;;;;;12.35;5.43;;;;;;;;;;5053911;28;20040;-75
2021/06/07 10:37:28;;;;;;;8.55;4.93;;;;;;;;;;5053783;28;20505;-74
2021/06/07 10:40:19;;;;;;;10.93;5.55;;;;;;;;;;5053343;28;20044;-76
2021/06/07 10:43:05;;;;;;;8.50;4.50;;;;;;;;;;5053154;28;20090;-76
2021/06/07 10:45:37;;;;;;;9.93;4.40;;;;;;;;;;5052507;28;20033;-76
2021/06/07 10:48:04;;;;;;;7.45;4.05;;;;;;;;;;5053115;28;20033;-77
2021/06/07 10:50:37;;;;;;;10.05;4.47;;;;;;;;;;5053171;28;20399;-76
2021/06/07 10:53:06;;;;;;;10.45;4.35;;;;;;;;;;5051703;28;20490;-77
2021/06/07 10:55:34;;;;;;;6.50;4.30;;;;;;;;;;5052060;28;20514;-76
2021/06/07 10:58:13;;;;;;;9.63;3.95;;;;;;;;;;5053044;28;20048;-77
2021/06/07 11:00:47;;;;;;;6.63;3.83;;;;;;;;;;5053172;28;20454;-77
2021/06/07 11:03:29;;;;;;;7.30;4.13;;;;;;;;;;5053201;28;20116;-76
2021/06/07 11:05:56;;;;;;;10.02;4.80;;;;;;;;;;5052168;28;20082;-76
2021/06/07 11:08:29;;;;;;;6.68;4.47;;;;;;;;;;5050368;28;20033;-77
2021/06/07 11:11:08;;;;;;;7.57;4.10;;;;;;;;;;5053045;28;20449;-77
2021/06/07 11:13:43;;;;;;;7.15;3.95;;;;;;;;;;5051698;28;20044;-76
2021/06/07 11:16:08;;;;;;;;;;;;;;;;;;5053180;28;20033;-77
2021/06/07 11:18:37;;;;;;;7.93;4.30;;;;;;;;;;5053177;28;19975;-77
2021/06/07 11:21:30;;;;;;;8.98;3.78;;;;;;;;;;5032656;28;20091;-78
2021/06/07 11:23:55;;;;;;;9.52;3.72;;;;;;;;;;5033199;28;20042;-77
2021/06/07 11:26:34;;;;;;;5.05;3.58;;;;;;;;;;5041634;28;20040;-77
2021/06/07 11:28:59;;;;;;;12.07;3.53;;;;;;;;;;5053042;28;20033;-77
2021/06/07 11:31:34;;;;;;;6.18;3.53;;;;;;;;;;5052787;28;20060;-78
2021/06/07 11:34:05;;;;;;;4.50;3.10;;;;;;;;;;5033816;28;20115;-78
2021/06/07 11:36:50;;;;;;;11.48;4.35;;;;;;;;;;5033549;28;20037;-78
2021/06/07 11:39:20;;;;;;;5.18;3.17;;;;;;;;;;5031717;28;20035;-77
2021/06/07 11:41:59;;;;;;;6.57;3.35;;;;;;;;;;5044078;28;20043;-74
2021/06/07 11:44:44;;;;;;;4.47;3.20;;;;;;;;;;5052433;28;20095;-77
2021/06/07 11:47:15;;;;;;;4.05;2.90;;;;;;;;;;5039698;28;20388;-75
2021/06/07 11:49:56;;;;;;;3.45;2.80;;;;;;;;;;5034484;28;20041;-79
2021/06/07 11:52:34;;;;;;;4.53;3.17;;;;;;;;;;5036871;28;20056;-75
2021/06/07 11:55:20;;;;;;;11.30;3.60;;;;;;;;;;5052444;28;20033;-76
2021/06/07 11:57:47;;;;;;;7.82;3.42;;;;;;;;;;5052511;28;20037;-76
2021/06/07 12:00:15;;;;;;;14.50;11.32;;;;;;;;;;5052021;28;20490;-76
2021/06/07 12:02:41;;;;;;;76.88;58.65;;;;;;;;;;5051990;28;20028;-76
2021/06/07 12:05:08;;;;;;;10.80;7.05;;;;;;;;;;5052144;28;20399;-76
2021/06/07 12:07:39;;;;;;;4.88;3.50;;;;;;;;;;5055025;28;20037;-74
2021/06/07 12:10:06;;;;;;;6.65;3.72;;;;;;;;;;5056299;28;20048;-75
2021/06/07 12:12:32;;;;;;;5.50;3.40;;;;;;;;;;5057183;28;20041;-80
2021/06/07 12:15:16;;;;;;;4.72;3.00;;;;;;;;;;5054706;28;20033;-75
2021/06/07 12:17:47;;;;;;;5.25;3.05;;;;;;;;;;5056273;28;20040;-76
2021/06/07 12:20:20;;;;;;;6.72;2.88;;;;;;;;;;5055956;28;20043;-76
2021/06/07 12:22:47;;;;;;;5.88;3.70;;;;;;;;;;5058393;28;20036;-76
2021/06/07 12:25:27;;;;;;;7.28;3.45;;;;;;;;;;5060059;28;20025;-79
2021/06/07 12:30:51;;;;;;;6.18;3.50;;;;;;;;;;5057060;28;20574;-76
2021/06/07 12:33:26;;;;;;;4.68;2.97;;;;;;;;;;5054709;28;20037;-77
2021/06/07 12:35:52;;;;;;;4.30;3.15;;;;;;;;;;5049770;28;20507;-76
2021/06/07 12:38:18;;;;;;;5.07;2.63;;;;;;;;;;5042117;28;20033;-77
2021/06/07 12:40:45;;;;;;;3.65;2.67;;;;;;;;;;5046085;28;20100;-77
2021/06/07 12:43:17;;;;;;;3.58;2.80;;;;;;;;;;5037397;28;20059;-77
2021/06/07 12:45:46;;;;;;;3.58;2.67;;;;;;;;;;5036122;28;20116;-78
2021/06/07 12:48:33;;;;;;;6.07;3.28;;;;;;;;;;5044828;28;20033;-75
2021/06/07 12:51:07;;;;;;;14.00;4.00;;;;;;;;;;5042256;28;20029;-76
2021/06/07 12:53:35;;;;;;;17.48;4.55;;;;;;;;;;5052058;28;20033;-75
2021/06/07 12:56:11;;;;;;;8.88;3.50;;;;;;;;;;5055221;28;20082;-76
2021/06/07 12:58:45;;;;;;;16.95;5.47;;;;;;;;;;5041909;28;20491;-77
2021/06/07 13:01:11;;;;;;;11.70;4.22;;;;;;;;;;5035157;28;20030;-77
2021/06/07 13:03:37;;;;;;;7.93;4.22;;;;;;;;;;5033851;28;20033;-77
2021/06/07 13:06:18;;;;;;;8.82;3.75;;;;;;;;;;5035086;28;20049;-77
2021/06/07 13:08:50;;;;;;;5.38;3.20;;;;;;;;;;5034637;28;20059;-76
2021/06/07 13:11:38;;;;;;;8.75;4.00;;;;;;;;;;5048674;28;20033;-76
2021/06/07 13:14:16;;;;;;;5.47;3.83;;;;;;;;;;5053247;28;20087;-76
2021/06/07 13:16:42;;;;;;;5.93;3.17;;;;;;;;;;5053066;28;20041;-75
2021/06/07 13:19:12;;;;;;;8.23;4.20;;;;;;;;;;5054551;28;20055;-75
2021/06/07 13:21:52;;;;;;;6.97;3.60;;;;;;;;;;5053322;28;20041;-75
2021/06/07 13:24:24;;;;;;;4.88;3.25;;;;;;;;;;5053178;28;20032;-76
2021/06/07 13:26:49;;;;;;;5.72;3.90;;;;;;;;;;5054455;28;20037;-75
2021/06/07 13:29:22;;;;;;;7.90;4.20;;;;;;;;;;5053275;28;20047;-75
2021/06/07 13:32:00;;;;;;;6.28;3.67;;;;;;;;;;5054659;28;20040;-75
2021/06/07 13:34:42;;;;;;;5.90;3.30;;;;;;;;;;5051909;28;20236;-75
2021/06/07 13:37:21;;;;;;;4.65;3.42;;;;;;;;;;5054422;28;20445;-75
2021/06/07 13:40:08;;;;;;;6.30;3.40;;;;;;;;;;5054346;28;20122;-75
2021/06/07 13:42:48;;;;;;;4.03;3.08;;;;;;;;;;5053379;28;20061;-76
2021/06/07 13:45:16;;;;;;;5.93;3.78;;;;;;;;;;5054008;28;20506;-74
2021/06/07 13:47:50;;;;;;;6.38;3.45;;;;;;;;;;5053189;28;20128;-76
2021/06/07 13:50:17;;;;;;;6.03;3.88;;;;;;;;;;5053543;28;20453;-76
2021/06/07 13:52:54;;;;;;;7.95;3.17;;;;;;;;;;5052945;28;20083;-76
2021/06/07 13:55:27;;;;;;;5.65;3.20;;;;;;;;;;5052745;28;20037;-76
2021/06/07 13:57:58;;;;;;;4.63;3.58;;;;;;;;;;5053896;28;20387;-76
2021/06/07 14:00:26;;;;;;;9.23;3.88;;;;;;;;;;5053636;28;20039;-76
2021/06/07 14:02:51;;;;;;;6.70;3.83;;;;;;;;;;5053937;28;20043;-76
2021/06/07 14:05:19;;;;;;;8.52;3.65;;;;;;;;;;5052619;28;20033;-76
2021/06/07 14:07:45;;;;;;;7.47;4.10;;;;;;;;;;5053506;28;20051;-76
2021/06/07 14:10:12;;;;;;;15.95;4.38;;;;;;;;;;5053493;28;20094;-76
2021/06/07 14:12:37;;;;;;;10.73;4.40;;;;;;;;;;5052442;28;20082;-76
2021/06/07 14:15:03;;;;;;;5.80;3.78;;;;;;;;;;5051062;28;20049;-76
2021/06/07 14:17:28;;;;;;;6.20;3.75;;;;;;;;;;5053630;28;20076;-76
2021/06/07 14:19:54;;;;;;;7.85;4.18;;;;;;;;;;5053782;28;20032;-76
2021/06/07 14:24:50;;;;;;;6.03;4.72;;;;;;;;;;5053223;28;20494;-76
2021/06/07 14:27:16;;;;;;;9.07;5.10;;;;;;;;;;5053307;28;20033;-76
2021/06/07 14:29:42;;;;;;;6.75;4.20;;;;;;;;;;5051560;28;20032;-76
2021/06/07 14:32:07;;;;;;;8.23;4.63;;;;;;;;;;5053333;28;20045;-76
2021/06/07 14:34:34;;;;;;;8.05;5.05;;;;;;;;;;5053217;28;20395;-76
2021/06/07 14:37:00;;;;;;;7.57;4.20;;;;;;;;;;5053132;28;20056;-75
2021/06/07 14:39:26;;;;;;;5.70;4.20;;;;;;;;;;5052085;28;20084;-76
2021/06/07 14:41:51;;;;;;;7.15;4.63;;;;;;;;;;5052934;28;20553;-76
2021/06/07 14:44:18;;;;;;;6.38;4.40;;;;;;;;;;5052967;28;20386;-76